Time;durP1;ratioP1;P1;durP2;ratioP2;P2;SDS_P1;SDS_P2;PMS_P1;PMS_P2;Temp;Humidity;BMP_temperature;BMP_pressure;BME280_temperature;BME280_humidity;BME280_pressure;Samples;Min_cycle;Max_cycle;Signal;HPM_P1;HPM_P2
2023/04/23 00:00:04;;;;;;;28.08;5.97;;;7.50;99.90;;;;;;4985110;28;20042;-75
2023/04/23 00:02:32;;;;;;;22.02;6.10;;;7.50;99.90;;;;;;4985140;28;20081;-75
2023/04/23 00:05:03;;;;;;;25.08;7.00;;;7.50;99.90;;;;;;4985556;28;20039;-75
2023/04/23 00:07:34;;;;;;;26.10;5.85;;;7.50;99.90;;;;;;4984742;28;20073;-75
2023/04/23 00:10:02;;;;;;;78.43;8.30;;;7.50;99.90;;;;;;4984058;28;20143;-75
2023/04/23 00:12:28;;;;;;;52.92;5.97;;;7.50;99.90;;;;;;4982834;28;20066;-75
2023/04/23 00:14:54;;;;;;;21.42;5.60;;;7.50;99.90;;;;;;4984173;28;20069;-75
2023/04/23 00:17:20;;;;;;;12.05;4.32;;;7.40;99.90;;;;;;4985494;28;20038;-75
2023/04/23 00:19:46;;;;;;;64.65;6.95;;;7.40;99.90;;;;;;4984459;28;20042;-75
2023/04/23 00:22:12;;;;;;;20.25;6.55;;;7.40;99.90;;;;;;4983403;28;20034;-75
2023/04/23 00:24:39;;;;;;;26.23;7.05;;;7.40;99.90;;;;;;4982988;28;20054;-75
2023/04/23 00:27:05;;;;;;;9.00;5.32;;;7.40;99.90;;;;;;4985282;28;20042;-75
2023/04/23 00:29:30;;;;;;;43.50;7.30;;;7.40;99.90;;;;;;4983591;28;20136;-75
2023/04/23 00:31:56;;;;;;;27.23;5.00;;;7.30;99.90;;;;;;4983021;28;20183;-76
2023/04/23 00:34:22;;;;;;;8.93;5.47;;;7.30;99.90;;;;;;4985150;28;20043;-75
2023/04/23 00:36:47;;;;;;;7.47;4.53;;;7.30;99.90;;;;;;4984475;28;20068;-75
2023/04/23 00:39:13;;;;;;;10.18;6.60;;;7.20;99.90;;;;;;4984090;28;20061;-75
2023/04/23 00:41:40;;;;;;;6.88;5.25;;;7.20;99.90;;;;;;4983364;28;20054;-75
2023/04/23 00:44:06;;;;;;;7.05;5.25;;;7.20;99.90;;;;;;4983997;28;20493;-75
2023/04/23 00:46:32;;;;;;;9.75;5.65;;;7.20;99.90;;;;;;4984448;28;20112;-75
2023/04/23 00:48:59;;;;;;;8.95;6.75;;;7.20;99.90;;;;;;4984156;28;20046;-75
2023/04/23 00:51:25;;;;;;;14.82;8.77;;;7.20;99.90;;;;;;4984612;28;20633;-76
2023/04/23 00:53:51;;;;;;;10.93;10.02;;;7.20;99.90;;;;;;4984595;28;20050;-75
2023/04/23 00:56:17;;;;;;;10.82;8.18;;;7.20;99.90;;;;;;4984348;28;20091;-75
2023/04/23 00:58:43;;;;;;;9.05;7.72;;;7.30;99.90;;;;;;4982972;28;20038;-75
2023/04/23 01:01:11;;;;;;;14.38;10.45;;;7.20;99.90;;;;;;4984447;28;20093;-76
2023/04/23 01:03:39;;;;;;;15.05;7.18;;;7.20;99.90;;;;;;4983739;28;20101;-75
2023/04/23 01:06:05;;;;;;;14.98;10.43;;;7.30;99.90;;;;;;4982806;28;20050;-75
2023/04/23 01:08:32;;;;;;;14.18;10.38;;;7.30;99.90;;;;;;4983317;28;20067;-76
2023/04/23 01:10:58;;;;;;;15.50;9.98;;;7.30;99.90;;;;;;4983962;28;20038;-76
2023/04/23 01:13:28;;;;;;;14.93;10.00;;;7.40;99.90;;;;;;5063745;23;20116;-75
2023/04/23 01:15:54;;;;;;;15.15;10.75;;;7.30;99.90;;;;;;4989654;28;20133;-75
2023/04/23 01:18:21;;;;;;;13.25;8.98;;;7.30;99.90;;;;;;5002612;28;20049;-75
2023/04/23 01:20:48;;;;;;;16.20;10.27;;;7.30;99.90;;;;;;4984660;28;20053;-75
2023/04/23 01:23:14;;;;;;;12.77;10.98;;;7.30;99.90;;;;;;4982990;28;20050;-76
2023/04/23 01:25:41;;;;;;;16.90;11.43;;;7.30;99.90;;;;;;4983996;28;20038;-75
2023/04/23 01:28:06;;;;;;;13.20;9.90;;;7.30;99.90;;;;;;4983335;28;20042;-75
2023/04/23 01:30:32;;;;;;;12.55;11.25;;;7.30;99.90;;;;;;4983871;28;20531;-76
2023/04/23 01:32:58;;;;;;;12.75;9.15;;;7.30;99.90;;;;;;4982959;28;20050;-76
2023/04/23 01:35:24;;;;;;;15.65;10.98;;;7.30;99.90;;;;;;4995517;28;20085;-75
2023/04/23 01:37:52;;;;;;;11.27;9.20;;;7.30;99.90;;;;;;4998099;28;20133;-75
2023/04/23 01:40:19;;;;;;;16.73;12.70;;;7.20;99.90;;;;;;5002584;28;20046;-75
2023/04/23 01:42:45;;;;;;;13.65;8.73;;;7.20;99.90;;;;;;5001580;28;20109;-75
2023/04/23 01:45:10;;;;;;;16.05;9.80;;;7.20;99.90;;;;;;4985382;28;20073;-75
2023/04/23 01:47:36;;;;;;;18.92;11.43;;;7.10;99.90;;;;;;4986561;28;20030;-75
2023/04/23 01:50:04;;;;;;;14.80;10.00;;;7.10;99.90;;;;;;4994715;28;20443;-75
2023/04/23 01:52:29;;;;;;;13.93;10.05;;;7.10;99.90;;;;;;5003618;28;20049;-75
2023/04/23 01:54:55;;;;;;;19.90;11.15;;;7.00;99.90;;;;;;4995755;28;20278;-76
2023/04/23 01:57:25;;;;;;;15.18;8.80;;;7.00;99.90;;;;;;4983475;28;20388;-76
2023/04/23 01:59:57;;;;;;;15.23;11.25;;;7.00;99.90;;;;;;4984596;28;20058;-75
2023/04/23 02:02:24;;;;;;;17.48;14.38;;;7.00;99.90;;;;;;4996075;28;20057;-75
2023/04/23 02:04:52;;;;;;;14.73;10.43;;;7.00;99.90;;;;;;4987678;28;20043;-75
2023/04/23 02:07:17;;;;;;;12.02;8.30;;;6.90;99.90;;;;;;5001595;28;20049;-75
2023/04/23 02:09:43;;;;;;;16.88;9.98;;;6.90;99.90;;;;;;5002973;28;20034;-75
2023/04/23 02:12:08;;;;;;;18.15;10.70;;;6.90;99.90;;;;;;4995900;28;20053;-75
2023/04/23 02:14:34;;;;;;;21.50;10.40;;;6.90;99.90;;;;;;4985211;28;20193;-75
2023/04/23 02:17:00;;;;;;;13.48;11.40;;;6.90;99.90;;;;;;4995832;28;20044;-75
2023/04/23 02:19:26;;;;;;;14.57;9.05;;;6.80;99.90;;;;;;4997840;28;20031;-76
2023/04/23 02:21:52;;;;;;;11.40;10.30;;;6.80;99.90;;;;;;5004087;28;20120;-75
2023/04/23 02:24:17;;;;;;;18.42;11.73;;;6.80;99.90;;;;;;5005509;28;20140;-75
2023/04/23 02:26:43;;;;;;;18.35;9.85;;;6.90;99.90;;;;;;4987137;28;20038;-75
2023/04/23 02:29:09;;;;;;;11.93;10.38;;;6.90;99.90;;;;;;4995075;28;20475;-75
2023/04/23 02:31:34;;;;;;;22.10;11.23;;;6.90;99.90;;;;;;4993313;28;20061;-75
2023/04/23 02:34:00;;;;;;;19.60;14.43;;;6.90;99.90;;;;;;5004775;28;20050;-76
2023/04/23 02:36:27;;;;;;;34.05;15.30;;;7.00;99.90;;;;;;4999011;28;20046;-77
2023/04/23 02:38:53;;;;;;;28.65;16.60;;;7.10;99.90;;;;;;4989000;28;20061;-75
2023/04/23 02:41:18;;;;;;;74.85;18.45;;;7.10;99.90;;;;;;5002442;28;20045;-75
2023/04/23 02:43:44;;;;;;;30.63;17.27;;;7.20;99.90;;;;;;4987287;28;20149;-75
2023/04/23 02:46:09;;;;;;;22.40;15.55;;;7.20;99.90;;;;;;4991881;28;20046;-75
2023/04/23 02:48:40;;;;;;;47.10;20.00;;;7.30;99.90;;;;;;4986729;28;20041;-76
2023/04/23 02:51:08;;;;;;;69.47;19.30;;;7.30;99.90;;;;;;4986690;28;20050;-75
2023/04/23 02:53:33;;;;;;;36.95;17.63;;;7.40;99.90;;;;;;4984704;28;20105;-75
2023/04/23 02:56:00;;;;;;;32.03;19.17;;;7.40;99.90;;;;;;4986985;28;20393;-76
2023/04/23 02:58:26;;;;;;;42.13;20.35;;;7.40;99.90;;;;;;4985508;28;20117;-76
2023/04/23 03:00:51;;;;;;;45.45;18.45;;;7.40;99.90;;;;;;4988476;28;20442;-75
2023/04/23 03:03:17;;;;;;;71.63;19.80;;;7.40;99.90;;;;;;4978619;28;20045;-75
2023/04/23 03:05:43;;;;;;;47.70;19.92;;;7.50;99.90;;;;;;4985143;28;20046;-75
2023/04/23 03:08:08;;;;;;;33.00;20.42;;;7.50;99.90;;;;;;4968773;28;20050;-75
2023/04/23 03:10:34;;;;;;;53.40;20.80;;;7.50;99.90;;;;;;5002555;28;20438;-76
2023/04/23 03:12:59;;;;;;;56.88;21.48;;;7.50;99.90;;;;;;4992403;28;20050;-75
2023/04/23 03:15:26;;;;;;;36.88;20.88;;;7.60;99.90;;;;;;5001587;28;20411;-76
2023/04/23 03:17:52;;;;;;;34.72;23.70;;;7.60;99.90;;;;;;5003621;28;20085;-75
2023/04/23 03:20:18;;;;;;;39.80;22.58;;;7.60;99.90;;;;;;5006258;28;20338;-75
2023/04/23 03:22:44;;;;;;;44.22;21.13;;;7.60;99.90;;;;;;5004495;28;20540;-75
2023/04/23 03:25:10;;;;;;;43.88;22.02;;;7.60;99.90;;;;;;5004672;28;20046;-75
2023/04/23 03:27:39;;;;;;;43.28;21.88;;;7.60;99.90;;;;;;5004460;28;20034;-75
2023/04/23 03:30:07;;;;;;;32.47;22.35;;;7.60;99.90;;;;;;5005431;28;20500;-75
2023/04/23 03:32:33;;;;;;;47.25;24.83;;;7.60;99.90;;;;;;4993497;28;20054;-75
2023/04/23 03:34:59;;;;;;;36.40;19.92;;;7.60;99.90;;;;;;4990398;28;20049;-75
2023/04/23 03:37:25;;;;;;;45.20;23.00;;;7.60;99.90;;;;;;4991718;28;20046;-76
2023/04/23 03:39:51;;;;;;;38.95;23.50;;;7.70;99.90;;;;;;4986249;28;20042;-75
2023/04/23 03:42:17;;;;;;;68.43;25.25;;;7.70;99.90;;;;;;4999787;28;20070;-75
2023/04/23 03:44:42;;;;;;;39.92;22.98;;;7.70;99.90;;;;;;5004566;28;20042;-75
2023/04/23 03:47:08;;;;;;;40.28;22.95;;;7.70;99.90;;;;;;4988468;28;20637;-75
2023/04/23 03:49:33;;;;;;;47.83;26.63;;;7.70;99.90;;;;;;4992815;28;20121;-75
2023/04/23 03:51:59;;;;;;;46.50;27.58;;;7.70;99.90;;;;;;5003783;28;20104;-75
2023/04/23 03:54:27;;;;;;;39.90;26.45;;;7.70;99.90;;;;;;4995672;28;20050;-76
2023/04/23 03:56:52;;;;;;;39.30;25.15;;;7.80;99.90;;;;;;4986117;28;20042;-75
2023/04/23 03:59:18;;;;;;;42.90;27.38;;;7.80;99.90;;;;;;4983681;28;20046;-75
2023/04/23 04:01:44;;;;;;;41.67;27.60;;;7.80;99.90;;;;;;4985001;28;20038;-75
2023/04/23 04:04:09;;;;;;;58.50;30.10;;;7.80;99.90;;;;;;4985016;28;20459;-75
2023/04/23 04:06:35;;;;;;;48.55;31.05;;;7.80;99.90;;;;;;4985443;28;20129;-75
2023/04/23 04:09:00;;;;;;;44.17;29.42;;;7.80;99.90;;;;;;4983808;28;20049;-76
2023/04/23 04:11:26;;;;;;;51.22;31.63;;;7.80;99.90;;;;;;4983616;28;20646;-76
2023/04/23 04:13:51;;;;;;;50.90;31.13;;;7.80;99.90;;;;;;4984398;28;20058;-75
2023/04/23 04:16:17;;;;;;;50.50;29.35;;;7.80;99.90;;;;;;4983842;28;20042;-75
2023/04/23 04:18:43;;;;;;;47.88;29.58;;;7.90;99.90;;;;;;4990111;28;20610;-75
2023/04/23 04:21:08;;;;;;;48.70;28.55;;;7.90;99.90;;;;;;5004893;28;20038;-75
2023/04/23 04:23:34;;;;;;;51.38;30.65;;;7.90;99.90;;;;;;4993879;28;20034;-75
2023/04/23 04:26:01;;;;;;;56.30;28.67;;;7.90;99.90;;;;;;4995563;28;20042;-76
2023/04/23 04:28:27;;;;;;;51.13;32.05;;;7.90;99.90;;;;;;4982894;28;20480;-76
2023/04/23 04:30:53;;;;;;;45.78;26.02;;;7.90;99.90;;;;;;4992605;28;20113;-75
2023/04/23 04:33:19;;;;;;;45.25;32.08;;;7.90;99.90;;;;;;4992879;28;20153;-75
2023/04/23 04:35:46;;;;;;;47.92;28.95;;;7.90;99.90;;;;;;5000897;28;20041;-75
2023/04/23 04:38:12;;;;;;;48.20;26.92;;;7.90;99.90;;;;;;4985055;28;20058;-75
2023/04/23 04:40:37;;;;;;;51.55;28.73;;;7.90;99.90;;;;;;4984539;28;20548;-75
2023/04/23 04:43:06;;;;;;;58.75;29.23;;;7.90;99.90;;;;;;4983267;28;20260;-75
2023/04/23 04:45:32;;;;;;;50.28;29.65;;;8.00;99.90;;;;;;4983120;28;20089;-75
2023/04/23 04:47:57;;;;;;;54.35;29.08;;;8.00;99.90;;;;;;4993792;28;20049;-75
2023/04/23 04:50:23;;;;;;;57.42;26.73;;;8.00;99.90;;;;;;4984847;28;20436;-75
2023/04/23 04:52:49;;;;;;;51.25;31.38;;;8.00;99.90;;;;;;4984900;28;20034;-75
2023/04/23 04:55:15;;;;;;;50.20;27.08;;;8.00;99.90;;;;;;4994339;28;20050;-75
2023/04/23 04:57:40;;;;;;;57.90;30.45;;;8.00;99.90;;;;;;4983182;28;20082;-75
2023/04/23 05:00:23;;;;;;;44.00;27.60;;;8.00;99.90;;;;;;4984556;28;20077;-75
2023/04/23 05:02:49;;;;;;;53.03;28.65;;;8.00;99.90;;;;;;4988681;28;20084;-75
2023/04/23 05:05:15;;;;;;;49.53;26.08;;;8.10;99.90;;;;;;4988702;28;20104;-75
2023/04/23 05:07:41;;;;;;;46.45;26.25;;;8.10;99.90;;;;;;4982712;28;20042;-75
2023/04/23 05:10:07;;;;;;;45.92;23.55;;;8.10;99.90;;;;;;4982933;28;20628;-75
2023/04/23 05:12:32;;;;;;;45.05;26.55;;;8.10;99.90;;;;;;4984350;28;20070;-75
2023/04/23 05:14:58;;;;;;;48.45;27.55;;;8.10;99.90;;;;;;4982800;28;20097;-75
2023/04/23 05:17:24;;;;;;;54.67;27.38;;;8.10;99.90;;;;;;4984437;28;20055;-75
2023/04/23 05:19:49;;;;;;;49.38;24.80;;;8.20;99.90;;;;;;4988543;28;20056;-75
2023/04/23 05:22:17;;;;;;;54.97;28.27;;;8.20;99.90;;;;;;5002229;28;20081;-75
2023/04/23 05:24:43;;;;;;;40.50;26.35;;;8.20;99.90;;;;;;5003286;28;20108;-75
2023/04/23 05:27:09;;;;;;;48.25;26.85;;;8.20;99.90;;;;;;4999432;28;20897;-75
2023/04/23 05:29:34;;;;;;;41.28;25.95;;;8.20;99.90;;;;;;4990259;28;20038;-75
2023/04/23 05:32:00;;;;;;;52.80;28.65;;;8.20;99.90;;;;;;4989577;28;20132;-75
2023/04/23 05:34:25;;;;;;;51.70;24.55;;;8.30;99.90;;;;;;4982566;28;20044;-76
2023/04/23 05:36:51;;;;;;;46.58;25.45;;;8.30;99.90;;;;;;4998642;28;20069;-75
2023/04/23 05:39:17;;;;;;;43.58;25.70;;;8.30;99.90;;;;;;5001788;28;20041;-75
2023/04/23 05:41:42;;;;;;;43.75;23.95;;;8.30;99.90;;;;;;5000685;28;20892;-76
2023/04/23 05:44:08;;;;;;;46.30;23.65;;;8.30;99.90;;;;;;5003684;28;20049;-75
2023/04/23 05:46:34;;;;;;;41.72;24.13;;;8.40;99.90;;;;;;4999701;28;20034;-76
2023/04/23 05:49:00;;;;;;;56.80;26.88;;;8.40;99.90;;;;;;4989946;28;20642;-75
2023/04/23 05:51:26;;;;;;;41.60;22.00;;;8.40;99.90;;;;;;4987350;28;20087;-76
2023/04/23 05:53:51;;;;;;;43.72;23.83;;;8.40;99.90;;;;;;4993293;28;20061;-76
2023/04/23 05:56:17;;;;;;;44.78;22.33;;;8.40;99.90;;;;;;4990626;28;20404;-77
2023/04/23 05:58:43;;;;;;;42.85;24.67;;;8.40;99.90;;;;;;4995218;28;20046;-76
2023/04/23 06:01:09;;;;;;;41.25;21.05;;;8.40;99.90;;;;;;4988595;28;20082;-77
2023/04/23 06:03:35;;;;;;;49.58;21.95;;;8.40;99.90;;;;;;4993989;28;20030;-77
2023/04/23 06:06:01;;;;;;;39.30;20.48;;;8.50;99.90;;;;;;4992307;28;20057;-78
2023/04/23 06:08:27;;;;;;;42.45;20.55;;;8.50;99.90;;;;;;4999225;28;20481;-77
2023/04/23 06:10:54;;;;;;;45.30;21.20;;;8.50;99.90;;;;;;4988532;28;20152;-77
2023/04/23 06:13:20;;;;;;;40.83;23.00;;;8.60;99.90;;;;;;4990636;28;20062;-77
2023/04/23 06:15:46;;;;;;;42.17;20.85;;;8.70;99.90;;;;;;4986074;28;20517;-77
2023/04/23 06:18:12;;;;;;;53.15;22.95;;;8.70;99.90;;;;;;4994498;28;20038;-77
2023/04/23 06:20:37;;;;;;;35.70;21.30;;;8.80;99.90;;;;;;4995448;28;20480;-77
2023/04/23 06:23:03;;;;;;;45.13;21.13;;;8.80;99.90;;;;;;4997273;28;20327;-77
2023/04/23 06:25:28;;;;;;;36.38;20.58;;;8.80;99.90;;;;;;4987113;28;20405;-77
2023/04/23 06:27:56;;;;;;;41.33;18.92;;;8.90;99.90;;;;;;4996766;28;20045;-77
2023/04/23 06:30:22;;;;;;;37.70;19.67;;;9.00;99.90;;;;;;4993027;28;20046;-78
2023/04/23 06:32:48;;;;;;;40.42;21.05;;;9.00;99.90;;;;;;4987224;28;20046;-78
2023/04/23 06:35:14;;;;;;;49.17;19.50;;;9.00;99.90;;;;;;4985730;28;20046;-78
2023/04/23 06:37:40;;;;;;;44.28;22.38;;;9.00;99.90;;;;;;4986564;28;20042;-77
2023/04/23 06:40:06;;;;;;;32.05;19.23;;;9.10;99.90;;;;;;4972342;28;20400;-78
2023/04/23 06:42:32;;;;;;;39.80;19.55;;;9.10;99.90;;;;;;4994517;28;20555;-77
2023/04/23 06:44:58;;;;;;;32.42;18.35;;;9.20;99.90;;;;;;5005786;28;20129;-80
2023/04/23 06:47:24;;;;;;;41.80;18.80;;;9.20;99.90;;;;;;4992893;28;20066;-78
2023/04/23 06:49:49;;;;;;;39.88;20.10;;;9.20;99.90;;;;;;4990214;28;20081;-77
2023/04/23 06:52:15;;;;;;;47.88;18.90;;;9.20;99.90;;;;;;4988951;28;20039;-77
2023/04/23 06:54:40;;;;;;;36.95;19.55;;;9.30;99.90;;;;;;4986524;28;20479;-76
2023/04/23 06:57:06;;;;;;;30.58;17.90;;;9.30;99.90;;;;;;4985493;28;20045;-77
2023/04/23 06:59:31;;;;;;;46.85;20.40;;;9.30;99.90;;;;;;5001126;28;20073;-78
2023/04/23 07:01:57;;;;;;;44.03;22.60;;;9.40;99.90;;;;;;5005561;28;20042;-78
2023/04/23 07:04:23;;;;;;;35.08;18.20;;;9.40;99.90;;;;;;5006406;28;20048;-78
2023/04/23 07:06:48;;;;;;;38.78;19.45;;;9.40;99.90;;;;;;5004133;28;20377;-78
2023/04/23 07:09:14;;;;;;;41.25;20.98;;;9.50;99.90;;;;;;4996199;28;20050;-77
2023/04/23 07:11:39;;;;;;;41.75;18.08;;;9.50;99.90;;;;;;4984805;28;20057;-78
2023/04/23 07:14:05;;;;;;;39.13;17.48;;;9.60;99.90;;;;;;4993416;28;20058;-77
2023/04/23 07:16:32;;;;;;;33.75;17.75;;;9.60;99.90;;;;;;4988713;28;20038;-77
2023/04/23 07:19:00;;;;;;;40.20;19.38;;;9.60;99.90;;;;;;4989472;28;20121;-78
2023/04/23 07:21:26;;;;;;;30.50;19.35;;;9.60;99.90;;;;;;5003689;28;20528;-78
2023/04/23 07:23:53;;;;;;;34.88;16.10;;;9.60;99.90;;;;;;5000287;28;20174;-77
2023/04/23 07:26:20;;;;;;;38.33;16.42;;;9.70;99.90;;;;;;4991077;28;20061;-78
2023/04/23 07:28:47;;;;;;;47.63;20.88;;;9.70;99.90;;;;;;4993736;28;20042;-77
2023/04/23 07:31:13;;;;;;;32.47;17.98;;;9.80;99.90;;;;;;4992944;28;20042;-77
2023/04/23 07:33:39;;;;;;;42.58;18.77;;;9.80;99.90;;;;;;4992304;28;20042;-77
2023/04/23 07:36:04;;;;;;;40.97;17.20;;;9.90;99.90;;;;;;4989656;28;20123;-77
2023/04/23 07:38:30;;;;;;;38.65;17.30;;;10.00;99.90;;;;;;4996428;28;20469;-77
2023/04/23 07:40:55;;;;;;;44.20;16.63;;;10.00;99.90;;;;;;4991257;28;20042;-78
2023/04/23 07:43:21;;;;;;;38.63;15.98;;;10.00;99.90;;;;;;4990303;28;20088;-77
2023/04/23 07:45:47;;;;;;;39.03;17.45;;;10.10;99.90;;;;;;4989260;28;20563;-76
2023/04/23 07:48:12;;;;;;;31.98;15.35;;;10.10;99.90;;;;;;4986118;28;20134;-77
2023/04/23 07:50:38;;;;;;;41.50;16.70;;;10.20;99.90;;;;;;4985621;28;20034;-77
2023/04/23 07:53:03;;;;;;;46.95;15.80;;;10.20;99.90;;;;;;4985426;28;20738;-78
2023/04/23 07:55:29;;;;;;;34.85;15.23;;;10.30;99.90;;;;;;5000570;28;20050;-77
2023/04/23 07:57:54;;;;;;;33.95;15.32;;;10.40;99.90;;;;;;4985700;28;20049;-79
2023/04/23 08:00:20;;;;;;;35.92;15.43;;;10.40;99.90;;;;;;4986104;28;20100;-78
2023/04/23 08:02:46;;;;;;;33.97;15.35;;;10.50;99.90;;;;;;4997762;28;20516;-78
2023/04/23 08:05:11;;;;;;;28.88;14.18;;;10.50;99.90;;;;;;4993332;28;21667;-77
2023/04/23 08:07:37;;;;;;;31.75;13.90;;;10.60;99.90;;;;;;5004464;28;20052;-76
2023/04/23 08:10:04;;;;;;;32.00;14.00;;;10.70;99.90;;;;;;4988340;28;20401;-78
2023/04/23 08:12:33;;;;;;;19.73;11.02;;;10.70;99.90;;;;;;4984222;28;20046;-76
2023/04/23 08:14:58;;;;;;;27.58;13.10;;;10.80;99.90;;;;;;4984989;28;20066;-78
2023/04/23 08:17:24;;;;;;;28.60;12.77;;;10.90;99.90;;;;;;4988897;28;20258;-77
2023/04/23 08:19:50;;;;;;;27.38;11.70;;;10.90;99.90;;;;;;5003287;28;20042;-78
2023/04/23 08:22:16;;;;;;;23.00;12.35;;;11.00;99.90;;;;;;4998566;28;20049;-77
2023/04/23 08:24:43;;;;;;;23.42;10.75;;;11.00;99.90;;;;;;4984180;28;20045;-76
2023/04/23 08:27:09;;;;;;;16.88;10.55;;;11.10;99.90;;;;;;4983903;28;20046;-76
2023/04/23 08:29:35;;;;;;;19.67;10.65;;;11.10;99.90;;;;;;4969710;28;20518;-76
2023/04/23 08:32:00;;;;;;;30.23;13.15;;;11.20;99.90;;;;;;4993153;28;20042;-76
2023/04/23 08:34:26;;;;;;;21.50;11.60;;;11.30;99.90;;;;;;4983245;28;20390;-76
2023/04/23 08:36:52;;;;;;;20.95;10.75;;;11.30;99.90;;;;;;4985394;28;20054;-77
2023/04/23 08:39:17;;;;;;;26.00;11.02;;;11.40;99.90;;;;;;4983391;28;20129;-76
2023/04/23 08:41:47;;;;;;;21.80;11.02;;;11.50;99.90;;;;;;4983145;28;20050;-76
2023/04/23 08:44:13;;;;;;;18.73;9.98;;;11.60;99.90;;;;;;4995084;28;20053;-76
2023/04/23 08:46:42;;;;;;;19.98;10.25;;;11.60;99.90;;;;;;4986548;28;20046;-76
2023/04/23 08:49:14;;;;;;;25.05;10.75;;;11.70;99.90;;;;;;4993256;28;20069;-76
2023/04/23 08:51:45;;;;;;;26.40;10.70;;;11.80;99.90;;;;;;4994783;28;20050;-77
2023/04/23 08:54:17;;;;;;;24.15;9.73;;;11.80;99.90;;;;;;4994506;28;20057;-76
2023/04/23 08:56:44;;;;;;;18.55;9.38;;;11.90;99.90;;;;;;4993625;28;20074;-76
2023/04/23 08:59:10;;;;;;;21.83;8.52;;;12.00;99.90;;;;;;4984592;28;20409;-77
2023/04/23 09:01:36;;;;;;;16.55;8.85;;;12.10;99.90;;;;;;4989721;28;20206;-78
2023/04/23 09:04:02;;;;;;;16.88;6.38;;;12.20;99.90;;;;;;4987938;28;20128;-77
2023/04/23 09:06:30;;;;;;;13.02;6.75;;;12.20;99.90;;;;;;5001031;28;20476;-77
2023/04/23 09:08:57;;;;;;;11.38;6.07;;;12.30;99.90;;;;;;5002581;28;20119;-75
2023/04/23 09:11:27;;;;;;;16.42;6.22;;;12.30;99.90;;;;;;4986035;28;20069;-76
2023/04/23 09:13:55;;;;;;;9.82;5.82;;;12.40;99.90;;;;;;4983819;28;20050;-77
2023/04/23 09:16:20;;;;;;;14.98;5.07;;;12.40;99.90;;;;;;4982883;28;20323;-77
2023/04/23 09:18:46;;;;;;;10.77;5.80;;;12.40;99.90;;;;;;4982526;28;20073;-78
2023/04/23 09:21:13;;;;;;;10.23;6.05;;;12.40;99.90;;;;;;5006084;28;20086;-76
2023/04/23 09:23:40;;;;;;;11.43;6.45;;;12.50;99.90;;;;;;4998947;28;20041;-77
2023/04/23 09:26:06;;;;;;;12.70;6.57;;;12.50;99.90;;;;;;5008239;28;20117;-77
2023/04/23 09:28:36;;;;;;;15.73;5.97;;;12.60;99.90;;;;;;4995714;28;20117;-76
2023/04/23 09:31:04;;;;;;;7.95;4.80;;;12.70;99.90;;;;;;4989825;28;20050;-77
2023/04/23 09:33:33;;;;;;;10.93;6.10;;;12.70;99.90;;;;;;4988774;28;20094;-76
2023/04/23 09:36:08;;;;;;;11.13;5.97;;;12.70;99.90;;;;;;4992806;28;20714;-76
2023/04/23 09:38:34;;;;;;;9.40;4.90;;;12.80;99.90;;;;;;5008347;28;20141;-77
2023/04/23 09:41:22;;;;;;;13.23;5.93;;;12.80;99.90;;;;;;4994166;28;20054;-79
2023/04/23 09:43:48;;;;;;;11.77;4.55;;;12.90;99.90;;;;;;5008743;28;20046;-77
2023/04/23 09:46:13;;;;;;;11.65;4.43;;;13.00;99.90;;;;;;5009007;28;20640;-78
2023/04/23 09:48:41;;;;;;;11.20;4.53;;;13.10;99.90;;;;;;4995917;28;20042;-77
2023/04/23 09:51:07;;;;;;;7.43;3.90;;;13.10;99.90;;;;;;4989421;28;20053;-82
2023/04/23 09:53:41;;;;;;;6.80;4.20;;;13.20;99.90;;;;;;4991089;28;20046;-79
2023/04/23 09:56:07;;;;;;;9.60;4.40;;;13.30;99.90;;;;;;4997559;28;20049;-77
2023/04/23 09:58:32;;;;;;;9.90;4.25;;;13.30;99.90;;;;;;4997380;28;20622;-79
2023/04/23 10:01:08;;;;;;;7.93;3.63;;;13.30;99.90;;;;;;5009720;28;20057;-77
2023/04/23 10:03:34;;;;;;;8.77;4.50;;;13.30;99.90;;;;;;5000414;28;20060;-77
2023/04/23 10:06:00;;;;;;;7.78;3.85;;;13.30;99.90;;;;;;5003523;28;20042;-78
2023/04/23 10:08:26;;;;;;;9.95;3.72;;;13.30;99.90;;;;;;4990240;28;20428;-80
2023/04/23 10:10:52;;;;;;;6.95;3.10;;;13.30;99.90;;;;;;4991250;28;20041;-77
2023/04/23 10:13:18;;;;;;;6.63;4.07;;;13.40;99.90;;;;;;4990443;28;20058;-78
2023/04/23 10:15:46;;;;;;;8.75;4.80;;;13.50;99.90;;;;;;4999516;28;20045;-77
2023/04/23 10:18:13;;;;;;;7.40;3.60;;;13.60;99.90;;;;;;5000891;28;20046;-77
2023/04/23 10:20:40;;;;;;;5.50;2.95;;;13.70;99.90;;;;;;5005257;28;20088;-77
2023/04/23 10:23:11;;;;;;;8.68;3.67;;;13.80;99.90;;;;;;4992885;28;20540;-78
2023/04/23 10:25:39;;;;;;;5.30;3.08;;;13.90;99.90;;;;;;4993145;28;20046;-78
2023/04/23 10:28:06;;;;;;;4.40;2.00;;;14.00;99.90;;;;;;4995871;28;20046;-78
2023/04/23 10:30:32;;;;;;;6.30;3.13;;;14.00;99.90;;;;;;4989995;28;20030;-76
2023/04/23 10:33:00;;;;;;;8.07;3.10;;;14.10;99.90;;;;;;4986904;28;20092;-77
2023/04/23 10:35:26;;;;;;;6.18;3.30;;;14.10;99.90;;;;;;4991140;28;20508;-78
2023/04/23 10:37:52;;;;;;;9.50;4.15;;;14.00;99.90;;;;;;4988615;28;20086;-77
2023/04/23 10:40:25;;;;;;;5.90;3.58;;;14.00;99.90;;;;;;4988534;28;20057;-77
2023/04/23 10:42:51;;;;;;;9.27;2.75;;;13.90;99.90;;;;;;4996420;28;20038;-78
2023/04/23 10:45:19;;;;;;;6.63;2.88;;;13.90;99.90;;;;;;4989699;28;20054;-77
2023/04/23 10:47:45;;;;;;;13.02;3.83;;;13.90;99.90;;;;;;4991232;28;20614;-78
2023/04/23 10:50:28;;;;;;;7.10;3.33;;;14.00;99.90;;;;;;4992606;28;20050;-79
2023/04/23 10:52:56;;;;;;;6.88;2.88;;;14.00;99.90;;;;;;4998783;28;20053;-78
2023/04/23 10:55:26;;;;;;;5.05;2.75;;;14.10;99.90;;;;;;4996091;28;20046;-78
2023/04/23 10:58:03;;;;;;;4.60;3.00;;;14.10;99.90;;;;;;4995039;28;20785;-78
2023/04/23 11:00:44;;;;;;;5.18;2.97;;;14.10;99.90;;;;;;5006270;28;20080;-78
2023/04/23 11:03:29;;;;;;;6.25;2.80;;;14.20;99.90;;;;;;4989114;28;20074;-77
2023/04/23 11:05:54;;;;;;;5.50;2.20;;;14.20;99.90;;;;;;5001526;28;20057;-80
2023/04/23 11:08:20;;;;;;;4.55;2.00;;;14.30;99.90;;;;;;5000096;28;20034;-77
2023/04/23 11:11:00;;;;;;;4.28;2.20;;;14.30;99.90;;;;;;4995045;28;20084;-78
2023/04/23 11:13:27;;;;;;;6.53;2.45;;;14.40;99.90;;;;;;4984652;28;20062;-79
2023/04/23 11:16:23;;;;;;;5.20;1.95;;;14.40;99.90;;;;;;4993419;28;20038;-79
2023/04/23 11:19:11;;;;;;;6.55;1.40;;;14.40;99.90;;;;;;4999536;28;20076;-78
2023/04/23 11:21:58;;;;;;;1.73;1.40;;;14.50;99.90;;;;;;4990335;28;20747;-77
2023/04/23 11:24:44;;;;;;;1.75;1.45;;;14.60;99.90;;;;;;5002915;28;20523;-78
2023/04/23 11:27:15;;;;;;;3.42;1.30;;;14.60;99.90;;;;;;4984594;28;20040;-79
2023/04/23 11:29:42;;;;;;;1.85;1.40;;;14.70;99.90;;;;;;4988120;28;20042;-78
2023/04/23 11:32:12;;;;;;;4.30;1.20;;;14.60;99.90;;;;;;4995245;28;20756;-79
2023/04/23 11:34:45;;;;;;;1.20;1.10;;;14.60;99.90;;;;;;4972533;28;20050;-79
2023/04/23 11:37:12;;;;;;;1.88;1.10;;;14.60;99.90;;;;;;4968273;28;20049;-79
2023/04/23 11:39:39;;;;;;;3.22;1.70;;;14.70;99.90;;;;;;4980673;28;20046;-78
2023/04/23 11:42:10;;;;;;;4.63;1.60;;;14.70;99.90;;;;;;4992710;28;20116;-79
2023/04/23 11:44:38;;;;;;;3.85;1.73;;;14.80;99.90;;;;;;4989672;28;20037;-79
2023/04/23 11:47:06;;;;;;;3.50;2.17;;;14.80;99.90;;;;;;5000648;28;20065;-80
2023/04/23 11:49:32;;;;;;;4.07;1.80;;;14.90;99.90;;;;;;4994332;28;20121;-79
2023/04/23 11:52:00;;;;;;;3.90;1.30;;;14.90;99.90;;;;;;4994708;28;20129;-79
2023/04/23 11:54:28;;;;;;;3.40;1.40;;;15.00;99.90;;;;;;4995324;28;20121;-80
2023/04/23 11:56:54;;;;;;;1.88;1.55;;;15.10;99.90;;;;;;4991986;28;20057;-78
2023/04/23 11:59:20;;;;;;;3.05;1.10;;;15.20;99.90;;;;;;4991441;28;20038;-79
2023/04/23 12:01:47;;;;;;;2.17;0.88;;;15.20;99.90;;;;;;5000210;28;20542;-79
2023/04/23 12:04:20;;;;;;;1.70;1.00;;;15.20;99.90;;;;;;4992914;28;20074;-79
2023/04/23 12:06:47;;;;;;;1.88;0.93;;;15.30;99.90;;;;;;4996455;28;20092;-79
2023/04/23 12:09:14;;;;;;;2.63;1.67;;;15.30;99.90;;;;;;4997671;28;20046;-77
2023/04/23 12:11:41;;;;;;;1.23;0.70;;;15.30;99.90;;;;;;4983570;28;20053;-79
2023/04/23 12:14:07;;;;;;;1.55;1.42;;;15.30;99.90;;;;;;4983613;28;20077;-78
2023/04/23 12:16:44;;;;;;;1.95;1.40;;;15.30;99.90;;;;;;4985372;28;20112;-79
2023/04/23 12:19:14;;;;;;;3.63;1.10;;;15.30;99.90;;;;;;4983843;28;20050;-78
2023/04/23 12:21:57;;;;;;;4.95;1.63;;;15.30;99.90;;;;;;4985673;28;20520;-78
2023/04/23 12:24:53;;;;;;;2.42;0.80;;;15.30;99.90;;;;;;4985568;28;20121;-80
2023/04/23 12:27:23;;;;;;;3.03;1.17;;;15.40;99.90;;;;;;4996450;28;20131;-78
2023/04/23 12:29:58;;;;;;;2.70;1.08;;;15.50;99.90;;;;;;4958360;28;20069;-78
2023/04/23 12:32:25;;;;;;;1.92;1.08;;;15.50;99.90;;;;;;5004018;28;20539;-81
2023/04/23 12:34:53;;;;;;;0.90;0.80;;;15.60;99.90;;;;;;4983817;28;20129;-78
2023/04/23 12:37:26;;;;;;;1.70;0.88;;;15.70;99.90;;;;;;4983724;28;20067;-79
2023/04/23 12:39:53;;;;;;;1.60;0.60;;;15.70;99.90;;;;;;4967418;28;20050;-79